Time;durP1;ratioP1;P1;durP2;ratioP2;P2;SDS_P1;SDS_P2;PMS_P1;PMS_P2;Temp;Humidity;BMP_temperature;BMP_pressure;BME280_temperature;BME280_humidity;BME280_pressure;Samples;Min_cycle;Max_cycle;Signal;HPM_P1;HPM_P2
2021/07/06 00:02:18;;;;;;;13.55;9.60;;;;;;;17.65;82.24;100487.75;5069400;28;19924;-58
2021/07/06 00:04:47;;;;;;;12.15;8.70;;;;;;;17.71;82.20;100487.97;5070682;28;20037;-57
2021/07/06 00:07:18;;;;;;;12.60;8.60;;;;;;;17.72;82.53;100483.50;5071221;28;20505;-61
2021/07/06 00:09:46;;;;;;;12.90;7.90;;;;;;;17.65;83.03;100477.13;5071919;28;20063;-58
2021/07/06 00:12:14;;;;;;;13.18;9.27;;;;;;;17.60;83.43;100480.25;5053606;28;20110;-61
2021/07/06 00:14:40;;;;;;;13.20;8.13;;;;;;;17.64;83.25;100473.66;5070618;28;20051;-61
2021/07/06 00:17:07;;;;;;;10.90;7.20;;;;;;;17.64;83.75;100475.44;5069153;28;20045;-61
2021/07/06 00:19:34;;;;;;;10.77;6.50;;;;;;;17.60;84.31;100484.72;5071369;28;20382;-61
2021/07/06 00:22:02;;;;;;;9.32;5.70;;;;;;;17.64;84.54;100478.97;5070070;28;20048;-60
2021/07/06 00:24:28;;;;;;;9.10;4.45;;;;;;;17.67;84.70;100476.00;5071188;28;20485;-61
2021/07/06 00:26:55;;;;;;;6.10;3.05;;;;;;;17.68;83.67;100469.69;5070915;28;20113;-57
2021/07/06 00:29:22;;;;;;;11.07;3.25;;;;;;;17.68;83.45;100461.72;5070728;28;20532;-57
2021/07/06 00:31:49;;;;;;;4.70;2.75;;;;;;;17.69;83.87;100452.72;5070187;28;20055;-61
2021/07/06 00:34:16;;;;;;;5.13;3.00;;;;;;;17.79;84.12;100444.63;5052700;28;20098;-61
2021/07/06 00:36:43;;;;;;;6.03;2.92;;;;;;;17.74;84.35;100447.78;5070730;28;20053;-60
2021/07/06 00:39:09;;;;;;;4.75;3.15;;;;;;;17.76;84.71;100444.13;5070919;28;20044;-61
2021/07/06 00:41:37;;;;;;;7.00;3.00;;;;;;;17.78;84.74;100437.66;5069682;28;20051;-60
2021/07/06 00:44:04;;;;;;;6.40;3.10;;;;;;;17.78;84.79;100428.84;5070566;28;20558;-61
2021/07/06 00:46:31;;;;;;;5.68;3.05;;;;;;;17.80;84.56;100427.69;5070655;28;20137;-61
2021/07/06 00:48:58;;;;;;;6.43;2.85;;;;;;;17.79;84.54;100431.34;5050674;28;20132;-60
2021/07/06 00:51:25;;;;;;;5.43;2.78;;;;;;;17.81;84.51;100436.53;5071097;28;20048;-60
2021/07/06 00:53:52;;;;;;;5.43;2.75;;;;;;;17.80;84.71;100437.50;5070622;28;20077;-58
2021/07/06 00:56:19;;;;;;;5.47;2.70;;;;;;;17.79;84.78;100449.94;5036698;28;20045;-60
2021/07/06 00:58:49;;;;;;;4.57;2.67;;;;;;;17.81;84.70;100444.50;5052626;28;20044;-61
2021/07/06 01:01:24;;;;;;;6.40;2.72;;;;;;;17.81;84.45;100439.19;5070760;28;20079;-61
2021/07/06 01:03:51;;;;;;;5.10;2.70;;;;;;;17.90;84.31;100424.91;5067608;28;20043;-58
2021/07/06 01:06:18;;;;;;;4.75;2.60;;;;;;;17.85;84.57;100437.88;5053268;28;20481;-60
2021/07/06 01:08:45;;;;;;;4.22;2.60;;;;;;;17.82;85.10;100447.00;5070863;28;20060;-60
2021/07/06 01:11:17;;;;;;;3.67;2.60;;;;;;;17.83;84.78;100435.38;5053076;28;20048;-60
2021/07/06 01:13:44;;;;;;;4.38;2.55;;;;;;;17.86;84.87;100426.22;5069322;28;20056;-61
2021/07/06 01:16:11;;;;;;;5.85;2.25;;;;;;;17.84;85.23;100425.56;5069905;28;20044;-60
2021/07/06 01:18:38;;;;;;;6.15;2.42;;;;;;;17.92;84.59;100419.50;5068919;28;20048;-60
2021/07/06 01:21:05;;;;;;;5.15;2.38;;;;;;;17.88;85.07;100414.44;5070089;28;20102;-57
2021/07/06 01:23:31;;;;;;;4.95;2.17;;;;;;;17.81;85.55;100405.44;5069842;28;20055;-57
2021/07/06 01:26:04;;;;;;;3.38;2.08;;;;;;;17.81;85.54;100421.38;5069567;28;20052;-57
2021/07/06 01:28:32;;;;;;;4.57;2.20;;;;;;;17.84;85.53;100428.22;5069838;28;20087;-57
2021/07/06 01:30:59;;;;;;;5.55;2.30;;;;;;;17.86;85.41;100436.88;5069336;28;20552;-57
2021/07/06 01:33:30;;;;;;;6.10;3.53;;;;;;;17.82;85.64;100427.53;5068284;28;20060;-60
2021/07/06 01:36:07;;;;;;;3.65;2.25;;;;;;;17.75;85.92;100422.00;5052022;28;20094;-56
2021/07/06 01:38:36;;;;;;;4.55;2.33;;;;;;;17.81;86.14;100416.06;5069701;28;20401;-60
2021/07/06 01:41:04;;;;;;;5.45;2.67;;;;;;;17.89;85.35;100415.28;5069854;28;20056;-60
2021/07/06 01:43:31;;;;;;;5.50;2.17;;;;;;;17.85;85.95;100405.97;5069468;28;20493;-60
2021/07/06 01:45:58;;;;;;;6.28;1.80;;;;;;;17.87;85.25;100401.31;5052221;28;20098;-60
2021/07/06 01:48:25;;;;;;;4.25;1.73;;;;;;;17.84;85.35;100404.28;5068418;28;20118;-59
2021/07/06 01:50:51;;;;;;;5.90;1.60;;;;;;;17.78;85.16;100399.59;5052117;28;20044;-61
2021/07/06 01:53:21;;;;;;;4.03;1.55;;;;;;;17.83;85.06;100387.50;5069709;28;20469;-56
2021/07/06 01:55:51;;;;;;;2.25;1.40;;;;;;;17.85;85.19;100392.66;5069095;28;20048;-56
2021/07/06 01:58:20;;;;;;;3.08;1.67;;;;;;;17.76;85.61;100380.31;5051491;28;20519;-57
2021/07/06 02:00:58;;;;;;;2.88;1.60;;;;;;;17.73;85.66;100379.63;5067729;28;20110;-57
2021/07/06 02:03:26;;;;;;;4.28;1.60;;;;;;;17.77;85.35;100374.00;5067400;28;21054;-57
2021/07/06 02:05:57;;;;;;;2.90;1.40;;;;;;;17.73;85.63;100374.31;5068843;28;20048;-57
2021/07/06 02:08:25;;;;;;;2.45;1.50;;;;;;;17.74;85.68;100373.31;5069507;28;20059;-57
2021/07/06 02:10:54;;;;;;;1.92;1.45;;;;;;;17.69;85.67;100372.13;5051311;28;20053;-58
2021/07/06 02:13:23;;;;;;;1.92;1.23;;;;;;;17.71;85.71;100375.44;5069377;28;20045;-57
2021/07/06 02:15:52;;;;;;;1.80;1.30;;;;;;;17.71;85.58;100370.97;5067805;28;20093;-57
2021/07/06 02:18:20;;;;;;;4.97;1.50;;;;;;;17.80;85.56;100363.03;5068062;28;20048;-60
2021/07/06 02:20:48;;;;;;;3.83;1.50;;;;;;;17.73;85.97;100362.84;5069516;28;20044;-60
2021/07/06 02:23:15;;;;;;;2.25;1.58;;;;;;;17.76;85.91;100365.16;5068596;28;20040;-61
2021/07/06 02:25:42;;;;;;;3.65;1.85;;;;;;;17.75;86.36;100350.19;5069358;28;20098;-57
2021/07/06 02:28:09;;;;;;;2.22;1.45;;;;;;;17.69;86.77;100345.53;5067876;28;20052;-60
2021/07/06 02:30:36;;;;;;;2.50;1.55;;;;;;;17.65;86.61;100329.06;5051810;28;20045;-60
2021/07/06 02:33:04;;;;;;;2.97;1.50;;;;;;;17.59;86.59;100319.06;5066755;28;20059;-56
2021/07/06 02:35:31;;;;;;;3.75;1.58;;;;;;;17.51;87.13;100314.53;5051289;28;20516;-57
2021/07/06 02:37:59;;;;;;;3.38;1.50;;;;;;;17.47;87.14;100310.53;5050761;28;20076;-57
2021/07/06 02:40:27;;;;;;;2.78;1.58;;;;;;;17.45;87.34;100299.22;5067742;28;20060;-57
2021/07/06 02:42:55;;;;;;;3.70;1.80;;;;;;;17.36;87.74;100295.69;5068419;28;20922;-57
2021/07/06 02:45:22;;;;;;;5.32;1.80;;;;;;;17.37;87.83;100294.69;5051413;28;20473;-57
2021/07/06 02:47:49;;;;;;;2.95;1.70;;;;;;;17.32;88.20;100298.81;5064887;28;20055;-57
2021/07/06 02:50:20;;;;;;;5.28;2.03;;;;;;;17.31;88.08;100290.00;5069193;28;20044;-57
2021/07/06 02:52:47;;;;;;;4.05;1.60;;;;;;;17.30;88.07;100284.84;5068330;28;20048;-57
2021/07/06 02:55:14;;;;;;;3.60;1.90;;;;;;;17.17;88.39;100293.25;5051014;28;20040;-57
2021/07/06 02:57:43;;;;;;;5.57;2.40;;;;;;;17.26;87.89;100284.34;5067695;28;20063;-57
2021/07/06 03:00:21;;;;;;;7.07;2.58;;;;;;;17.18;88.07;100285.13;5068516;28;20455;-60
2021/07/06 03:02:54;;;;;;;8.15;2.22;;;;;;;17.15;88.35;100271.31;5066277;28;20139;-57
2021/07/06 03:05:22;;;;;;;4.32;2.22;;;;;;;17.13;87.92;100266.16;5069121;28;20408;-56
2021/07/06 03:07:50;;;;;;;3.80;1.95;;;;;;;17.12;88.19;100258.34;5068203;28;20049;-61
2021/07/06 03:10:20;;;;;;;4.28;1.92;;;;;;;17.09;88.08;100259.47;5068083;28;20051;-61
2021/07/06 03:12:47;;;;;;;3.25;2.13;;;;;;;17.15;88.08;100255.38;5070366;28;20048;-61
2021/07/06 03:15:16;;;;;;;4.38;2.22;;;;;;;17.11;87.87;100252.22;5054907;28;20098;-60
2021/07/06 03:17:44;;;;;;;5.80;3.20;;;;;;;17.06;88.66;100243.88;5069274;28;20045;-60
2021/07/06 03:20:14;;;;;;;6.38;3.03;;;;;;;17.02;88.94;100232.72;5071716;28;20049;-58
2021/07/06 03:22:41;;;;;;;4.78;2.38;;;;;;;17.02;89.30;100231.88;5072388;28;20052;-56
2021/07/06 03:25:10;;;;;;;3.28;2.00;;;;;;;17.04;88.93;100233.41;5072211;28;20037;-61
2021/07/06 03:27:38;;;;;;;3.67;2.08;;;;;;;17.04;89.19;100225.44;5071071;28;20040;-57
2021/07/06 03:30:11;;;;;;;3.13;1.88;;;;;;;17.03;88.98;100213.13;5053947;28;20040;-57
2021/07/06 03:32:37;;;;;;;;;;;;;;;17.04;88.91;100208.66;5070712;28;20047;-57
2021/07/06 03:35:06;;;;;;;3.60;1.83;;;;;;;17.04;89.19;100219.28;5072175;28;19928;-56
2021/07/06 03:37:33;;;;;;;3.83;1.70;;;;;;;17.06;88.82;100223.44;5072221;28;20102;-57
2021/07/06 03:40:00;;;;;;;4.13;1.90;;;;;;;17.06;88.74;100233.25;5071727;28;20048;-59
2021/07/06 03:42:27;;;;;;;2.58;1.55;;;;;;;17.10;88.40;100236.41;5070527;28;20063;-58
2021/07/06 03:44:53;;;;;;;3.20;1.80;;;;;;;17.10;88.38;100239.06;5071906;28;20048;-57
2021/07/06 03:47:20;;;;;;;4.18;1.70;;;;;;;17.11;88.39;100235.41;5070596;28;20113;-61
2021/07/06 03:49:47;;;;;;;2.72;1.80;;;;;;;17.18;87.99;100215.22;5071735;28;20072;-63
2021/07/06 03:52:14;;;;;;;3.63;1.80;;;;;;;17.16;88.08;100206.56;5072822;28;20493;-60
2021/07/06 03:54:41;;;;;;;5.70;2.35;;;;;;;17.09;88.43;100209.00;5072123;28;20520;-61
2021/07/06 03:57:08;;;;;;;4.47;2.40;;;;;;;17.07;88.19;100216.31;5070886;28;20048;-58
2021/07/06 03:59:35;;;;;;;3.95;1.92;;;;;;;17.13;87.94;100220.16;5072272;28;20064;-60
2021/07/06 04:02:01;;;;;;;4.97;2.20;;;;;;;17.16;87.71;100217.19;5069317;28;20052;-57
2021/07/06 04:04:28;;;;;;;2.58;1.60;;;;;;;17.28;87.14;100209.78;5071226;28;20048;-56
2021/07/06 04:06:55;;;;;;;5.05;1.80;;;;;;;17.26;87.21;100204.63;5070895;28;20048;-57
2021/07/06 04:09:22;;;;;;;2.60;1.85;;;;;;;17.26;87.26;100212.59;5054449;28;20101;-60
2021/07/06 04:11:49;;;;;;;2.63;1.70;;;;;;;17.23;87.38;100200.47;5071469;28;20443;-60
2021/07/06 04:14:15;;;;;;;4.10;1.90;;;;;;;17.22;87.45;100196.13;5071604;28;20174;-56
2021/07/06 04:16:42;;;;;;;3.92;1.88;;;;;;;17.28;87.44;100186.69;5070629;28;20127;-60
2021/07/06 04:19:10;;;;;;;4.90;1.98;;;;;;;17.33;87.21;100181.72;5070046;28;20049;-60
2021/07/06 04:21:36;;;;;;;3.60;1.90;;;;;;;17.35;87.12;100185.03;5071265;28;20098;-61
2021/07/06 04:24:04;;;;;;;4.43;1.63;;;;;;;17.36;87.15;100180.59;5069418;28;20052;-57
2021/07/06 04:26:30;;;;;;;3.95;2.10;;;;;;;17.42;87.02;100173.78;5071225;28;20047;-57
2021/07/06 04:28:57;;;;;;;2.90;1.70;;;;;;;17.41;86.96;100165.00;5070251;28;20396;-57
2021/07/06 04:31:24;;;;;;;4.85;1.90;;;;;;;17.50;86.53;100160.53;5070763;28;20072;-57
2021/07/06 04:33:51;;;;;;;5.47;1.80;;;;;;;17.47;86.71;100168.81;5069100;28;20044;-56
2021/07/06 04:36:18;;;;;;;4.10;2.00;;;;;;;17.49;86.96;100166.81;5071200;28;20044;-61
2021/07/06 04:38:44;;;;;;;3.47;1.80;;;;;;;17.50;87.00;100165.84;5071429;28;20051;-62
2021/07/06 04:41:11;;;;;;;5.97;2.15;;;;;;;17.59;86.65;100140.94;5071276;28;20072;-61
2021/07/06 04:43:38;;;;;;;4.25;2.22;;;;;;;17.59;86.57;100159.56;5071289;28;20507;-61
2021/07/06 04:46:05;;;;;;;4.70;1.88;;;;;;;17.63;86.32;100160.91;5070815;28;20048;-59
2021/07/06 04:48:32;;;;;;;3.65;1.77;;;;;;;17.73;86.01;100169.53;5068559;28;20059;-58
2021/07/06 04:51:05;;;;;;;5.68;2.05;;;;;;;17.79;85.97;100167.22;5035830;28;20444;-60
2021/07/06 04:53:33;;;;;;;6.13;1.98;;;;;;;17.82;85.38;100167.75;5052666;28;20532;-61
2021/07/06 04:56:01;;;;;;;5.30;1.88;;;;;;;17.83;85.09;100168.56;5070626;28;20048;-61
2021/07/06 04:58:28;;;;;;;5.57;1.95;;;;;;;17.88;85.12;100179.56;5069818;28;20057;-61
2021/07/06 05:00:56;;;;;;;3.55;1.95;;;;;;;17.98;84.23;100164.28;5069913;28;20260;-61
2021/07/06 05:03:23;;;;;;;4.65;2.05;;;;;;;17.91;84.80;100216.47;5069515;28;20052;-61
2021/07/06 05:05:51;;;;;;;2.58;1.60;;;;;;;18.08;83.23;100191.59;5070619;28;20060;-58
2021/07/06 05:08:17;;;;;;;4.78;1.92;;;;;;;18.07;83.42;100197.88;5070420;28;20451;-58
2021/07/06 05:10:45;;;;;;;2.47;1.50;;;;;;;18.10;83.91;100203.91;5070598;28;20064;-56
2021/07/06 05:13:13;;;;;;;4.65;1.60;;;;;;;18.20;83.33;100209.88;5068811;28;20048;-59
2021/07/06 05:15:40;;;;;;;4.22;1.80;;;;;;;18.24;82.83;100208.53;5069846;28;20144;-57
2021/07/06 05:18:08;;;;;;;3.88;1.65;;;;;;;18.19;83.42;100206.41;5068175;28;20056;-61
2021/07/06 05:20:36;;;;;;;2.15;1.30;;;;;;;18.24;83.34;100225.38;5070437;28;20048;-61
2021/07/06 05:23:03;;;;;;;5.22;1.63;;;;;;;18.35;82.79;100218.03;5069974;28;20044;-61
2021/07/06 05:25:30;;;;;;;4.53;1.63;;;;;;;18.37;82.73;100224.84;5070725;28;20447;-60
2021/07/06 05:27:57;;;;;;;4.55;2.00;;;;;;;18.35;82.95;100228.69;5069617;28;20053;-60
2021/07/06 05:30:24;;;;;;;5.38;1.67;;;;;;;18.35;82.69;100224.22;5070314;28;20072;-57
2021/07/06 05:32:50;;;;;;;4.00;1.38;;;;;;;18.36;82.63;100228.50;5067962;28;20480;-57
2021/07/06 05:35:18;;;;;;;5.70;1.50;;;;;;;18.38;82.32;100231.84;5069950;28;20040;-58
2021/07/06 05:37:45;;;;;;;4.82;1.33;;;;;;;18.40;82.39;100229.84;5051666;28;20409;-60
2021/07/06 05:40:13;;;;;;;2.58;1.30;;;;;;;18.41;82.15;100222.72;5070186;28;20102;-60
2021/07/06 05:42:40;;;;;;;2.97;1.52;;;;;;;18.53;81.41;100220.56;5070009;28;20048;-60
2021/07/06 05:45:08;;;;;;;3.35;1.30;;;;;;;18.51;81.27;100218.03;5068274;28;20057;-58
2021/07/06 05:47:38;;;;;;;2.38;1.23;;;;;;;18.58;81.02;100220.84;5033788;28;20689;-57
2021/07/06 05:50:06;;;;;;;3.55;1.45;;;;;;;18.68;81.02;100226.00;5069030;28;20048;-57
2021/07/06 05:52:34;;;;;;;2.72;1.38;;;;;;;18.70;81.07;100218.69;5069293;28;20044;-57
2021/07/06 05:55:02;;;;;;;3.97;1.60;;;;;;;18.71;80.88;100220.38;5069091;28;20045;-57
2021/07/06 05:57:29;;;;;;;2.97;1.60;;;;;;;18.65;81.27;100203.22;5067832;28;20076;-60
2021/07/06 06:00:00;;;;;;;2.90;1.40;;;;;;;18.68;81.23;100188.72;5069802;28;20059;-57
2021/07/06 06:02:28;;;;;;;4.57;1.30;;;;;;;18.77;80.84;100186.91;5067531;28;20048;-60
2021/07/06 06:04:55;;;;;;;4.75;1.50;;;;;;;18.84;80.97;100191.38;5068672;28;20141;-61
2021/07/06 06:07:23;;;;;;;2.22;1.65;;;;;;;18.84;81.54;100201.19;5069519;28;20501;-58
2021/07/06 06:09:51;;;;;;;2.38;1.40;;;;;;;18.82;81.08;100195.22;5069343;28;20531;-58
2021/07/06 06:12:17;;;;;;;2.88;1.30;;;;;;;18.93;80.67;100197.53;5067849;28;20048;-57
2021/07/06 06:14:44;;;;;;;2.35;1.33;;;;;;;18.96;80.54;100215.03;5069292;28;20443;-61
2021/07/06 06:17:11;;;;;;;4.00;1.45;;;;;;;18.96;80.93;100217.69;5049708;28;20098;-60
2021/07/06 06:19:38;;;;;;;5.47;1.90;;;;;;;18.94;80.70;100201.88;5069696;28;20049;-60
2021/07/06 06:22:05;;;;;;;3.55;1.38;;;;;;;19.04;80.26;100207.81;5051058;28;20036;-57
2021/07/06 06:24:31;;;;;;;5.10;1.35;;;;;;;19.00;80.66;100206.50;5069468;28;20040;-60
2021/07/06 06:26:58;;;;;;;4.97;1.30;;;;;;;19.01;80.63;100202.84;5068870;28;20370;-61
2021/07/06 06:29:25;;;;;;;3.90;1.30;;;;;;;18.99;80.29;100220.00;5069946;28;20044;-60
2021/07/06 06:31:52;;;;;;;5.05;1.40;;;;;;;18.98;80.40;100211.19;5068770;28;20106;-61
2021/07/06 06:34:19;;;;;;;4.05;1.40;;;;;;;19.02;80.50;100198.34;5068809;28;20532;-60
2021/07/06 06:36:46;;;;;;;4.38;1.40;;;;;;;19.07;80.33;100201.34;5069440;28;20071;-61
2021/07/06 06:39:13;;;;;;;4.15;1.58;;;;;;;19.01;80.57;100208.19;5035321;28;20098;-61
2021/07/06 06:41:39;;;;;;;4.50;1.45;;;;;;;19.04;80.33;100205.16;5052405;28;20055;-60
2021/07/06 06:44:06;;;;;;;4.32;1.92;;;;;;;19.07;79.90;100204.84;5069160;28;20127;-61
2021/07/06 06:46:33;;;;;;;5.68;1.45;;;;;;;19.19;79.84;100202.63;5069341;28;20040;-60
2021/07/06 06:49:04;;;;;;;3.80;1.60;;;;;;;19.16;79.63;100212.81;5054095;28;20075;-61
2021/07/06 06:51:32;;;;;;;3.67;1.50;;;;;;;19.18;80.01;100213.47;5073314;28;20040;-61
2021/07/06 06:54:01;;;;;;;4.18;1.80;;;;;;;19.22;79.49;100209.44;5073126;28;20098;-57
2021/07/06 06:56:28;;;;;;;3.25;1.58;;;;;;;19.24;79.79;100208.28;5072482;28;20055;-57
2021/07/06 06:58:55;;;;;;;3.20;1.50;;;;;;;19.19;79.46;100207.13;5070507;28;20128;-58
2021/07/06 07:01:27;;;;;;;2.60;1.35;;;;;;;19.31;78.63;100207.59;5054525;28;20057;-57
2021/07/06 07:03:55;;;;;;;8.18;1.63;;;;;;;19.28;79.47;100207.91;5070941;28;20049;-57
2021/07/06 07:06:22;;;;;;;6.30;1.63;;;;;;;19.34;79.07;100210.72;5038356;28;20090;-57
2021/07/06 07:08:48;;;;;;;4.53;1.50;;;;;;;19.35;78.72;100200.91;5054663;28;20048;-58
2021/07/06 07:11:15;;;;;;;2.65;1.50;;;;;;;19.26;79.21;100202.78;5072273;28;20068;-58
2021/07/06 07:13:42;;;;;;;4.47;1.48;;;;;;;19.25;79.41;100203.75;5071064;28;20139;-58
2021/07/06 07:16:09;;;;;;;3.85;1.77;;;;;;;19.31;79.91;100204.94;5072672;28;20051;-61
2021/07/06 07:18:36;;;;;;;6.03;1.65;;;;;;;19.39;79.10;100213.72;5070475;28;20394;-58
2021/07/06 07:21:03;;;;;;;3.03;1.30;;;;;;;19.39;79.25;100211.06;5054060;28;20045;-58
2021/07/06 07:23:30;;;;;;;3.03;1.40;;;;;;;19.47;78.82;100212.88;5038381;28;20518;-58
2021/07/06 07:25:57;;;;;;;2.75;1.70;;;;;;;19.51;78.71;100206.19;5054232;28;20139;-57
2021/07/06 07:28:24;;;;;;;2.55;1.40;;;;;;;19.59;78.18;100213.28;5071788;28;20448;-58
2021/07/06 07:30:51;;;;;;;3.10;1.23;;;;;;;19.64;78.23;100207.44;5055211;28;20052;-60
2021/07/06 07:33:18;;;;;;;5.22;1.40;;;;;;;19.71;77.65;100206.56;5071028;28;20052;-61
2021/07/06 07:35:45;;;;;;;3.85;1.30;;;;;;;19.74;76.90;100203.56;5072764;28;20064;-61
2021/07/06 07:38:12;;;;;;;1.95;1.30;;;;;;;19.83;76.45;100208.88;5054810;28;20068;-61
2021/07/06 07:40:39;;;;;;;4.60;1.30;;;;;;;19.82;75.75;100204.53;5054997;28;20512;-60
2021/07/06 07:43:06;;;;;;;4.55;1.50;;;;;;;19.88;75.08;100222.53;5072023;28;20045;-61
2021/07/06 07:45:35;;;;;;;3.97;1.40;;;;;;;19.88;75.19;100223.34;5070874;28;20056;-58
2021/07/06 07:48:03;;;;;;;3.35;1.15;;;;;;;19.83;74.36;100215.03;5070350;28;20122;-61
2021/07/06 07:50:31;;;;;;;5.97;1.38;;;;;;;19.93;74.93;100212.13;5071205;28;20036;-61
2021/07/06 07:52:58;;;;;;;4.63;1.17;;;;;;;19.99;74.68;100227.44;5071947;28;20118;-60
2021/07/06 07:55:24;;;;;;;6.28;1.25;;;;;;;20.02;73.35;100216.41;5070841;28;20056;-57
2021/07/06 07:57:51;;;;;;;2.25;1.13;;;;;;;20.11;73.85;100217.22;5071019;28;20440;-61
2021/07/06 08:00:19;;;;;;;2.58;1.10;;;;;;;20.15;73.01;100226.50;5054938;28;20049;-61
2021/07/06 08:02:46;;;;;;;4.13;1.30;;;;;;;20.18;73.24;100222.63;5053430;28;20114;-60
2021/07/06 08:05:15;;;;;;;7.18;1.20;;;;;;;20.33;73.74;100231.56;5071641;28;20397;-61
2021/07/06 08:07:42;;;;;;;2.22;1.20;;;;;;;20.44;72.53;100224.97;5071930;28;20044;-61
2021/07/06 08:10:10;;;;;;;1.92;1.10;;;;;;;20.41;72.25;100222.63;5054390;28;20049;-62
2021/07/06 08:12:36;;;;;;;1.80;1.00;;;;;;;20.55;72.56;100234.38;5072343;28;20484;-61
2021/07/06 08:15:04;;;;;;;3.17;1.00;;;;;;;20.50;71.43;100234.91;5071515;28;20444;-60
2021/07/06 08:17:31;;;;;;;2.45;1.05;;;;;;;20.63;71.72;100222.78;5068793;28;20040;-60
2021/07/06 08:20:01;;;;;;;2.72;1.10;;;;;;;20.83;70.86;100231.97;5071846;28;20044;-60
2021/07/06 08:22:28;;;;;;;2.45;0.80;;;;;;;20.76;69.77;100229.22;5071364;28;20056;-58
2021/07/06 08:24:55;;;;;;;1.67;1.10;;;;;;;20.66;69.91;100231.28;5070449;28;20132;-57
2021/07/06 08:27:21;;;;;;;4.13;0.93;;;;;;;20.66;70.92;100228.59;5070828;28;20079;-57
2021/07/06 08:29:48;;;;;;;3.28;1.10;;;;;;;20.67;69.93;100232.94;5053384;28;20535;-57
2021/07/06 08:32:15;;;;;;;4.32;1.10;;;;;;;20.79;69.62;100243.22;5069391;28;20063;-57
2021/07/06 08:34:42;;;;;;;1.98;0.85;;;;;;;20.93;69.31;100247.75;5071009;28;20055;-57
2021/07/06 08:37:09;;;;;;;2.00;0.73;;;;;;;21.04;69.01;100246.47;5069955;28;20421;-57
2021/07/06 08:39:36;;;;;;;2.13;0.90;;;;;;;21.29;67.61;100249.69;5053308;28;20067;-57
2021/07/06 08:42:08;;;;;;;1.27;0.88;;;;;;;21.26;67.29;100253.56;5070115;28;20102;-57
2021/07/06 08:44:35;;;;;;;2.25;0.77;;;;;;;21.36;66.21;100255.16;5070467;28;20501;-57
2021/07/06 08:47:02;;;;;;;2.20;0.65;;;;;;;21.19;63.94;100252.66;5050885;28;20396;-56
2021/07/06 08:49:30;;;;;;;2.17;0.80;;;;;;;21.18;64.07;100256.34;5053048;28;20045;-56
2021/07/06 08:51:57;;;;;;;3.47;0.80;;;;;;;21.36;63.45;100253.28;5052756;28;20444;-57
2021/07/06 08:54:24;;;;;;;2.08;0.73;;;;;;;21.30;64.29;100255.88;5068723;28;20056;-58
2021/07/06 08:56:50;;;;;;;1.73;0.70;;;;;;;21.25;63.55;100253.75;5070300;28;20051;-62
2021/07/06 08:59:29;;;;;;;2.13;0.82;;;;;;;21.38;62.52;100248.59;5055028;28;20535;-60
2021/07/06 09:01:56;;;;;;;1.45;0.70;;;;;;;21.61;62.57;100250.38;5052170;28;20048;-61
2021/07/06 09:04:23;;;;;;;2.67;0.65;;;;;;;21.82;62.07;100254.13;5052263;28;20109;-60
2021/07/06 09:06:57;;;;;;;2.00;0.70;;;;;;;21.75;61.77;100252.16;5070399;28;20040;-60
2021/07/06 09:09:28;;;;;;;3.17;0.82;;;;;;;21.99;62.38;100260.91;5070323;28;20044;-61
2021/07/06 09:11:57;;;;;;;1.55;0.60;;;;;;;22.17;62.30;100267.66;5053104;28;20052;-61
2021/07/06 09:14:28;;;;;;;2.55;0.90;;;;;;;21.96;61.27;100266.59;5052850;28;20452;-61
2021/07/06 09:17:12;;;;;;;1.63;0.70;;;;;;;21.97;60.60;100280.84;5070161;28;20044;-61
2021/07/06 09:19:47;;;;;;;3.03;0.80;;;;;;;22.12;61.67;100287.78;5070708;28;20092;-61
2021/07/06 09:22:21;;;;;;;3.53;0.80;;;;;;;22.33;60.53;100285.34;5052364;28;20060;-58
2021/07/06 09:24:51;;;;;;;2.50;0.80;;;;;;;22.38;59.80;100280.28;5052159;28;20060;-61
2021/07/06 09:27:31;;;;;;;2.05;0.77;;;;;;;22.59;59.70;100268.69;5069220;28;20636;-61
2021/07/06 09:30:00;;;;;;;2.22;0.70;;;;;;;22.81;58.65;100269.53;5069725;28;20052;-58
2021/07/06 09:32:27;;;;;;;0.75;0.60;;;;;;;23.07;57.73;100266.19;5067939;28;20083;-58
2021/07/06 09:34:54;;;;;;;10.20;0.95;;;;;;;23.36;57.43;100261.66;5069566;28;20131;-58
2021/07/06 09:37:21;;;;;;;1.95;0.82;;;;;;;23.75;56.54;100265.53;5069474;28;20044;-58
2021/07/06 09:39:47;;;;;;;3.35;0.80;;;;;;;23.78;54.63;100253.59;5068516;28;20052;-58
2021/07/06 09:42:15;;;;;;;2.15;0.90;;;;;;;23.70;54.61;100262.63;5069689;28;20508;-58
2021/07/06 09:44:42;;;;;;;1.85;0.73;;;;;;;23.89;54.21;100266.44;5068785;28;20055;-57
2021/07/06 09:47:14;;;;;;;3.58;0.80;;;;;;;23.96;53.16;100261.09;5049793;28;20056;-61
2021/07/06 09:49:43;;;;;;;3.70;0.80;;;;;;;24.10;52.07;100278.06;5070096;28;20044;-59
2021/07/06 09:52:13;;;;;;;4.65;0.90;;;;;;;24.47;53.32;100271.31;5069906;28;20058;-58
2021/07/06 09:54:45;;;;;;;4.35;0.85;;;;;;;24.76;51.14;100279.19;5069460;28;20051;-58
2021/07/06 09:57:24;;;;;;;1.25;0.70;;;;;;;24.64;49.49;100276.31;5068483;28;20519;-58
2021/07/06 10:00:07;;;;;;;1.92;0.70;;;;;;;24.99;51.18;100270.69;5069646;28;20124;-58
2021/07/06 10:02:35;;;;;;;3.65;0.93;;;;;;;24.46;50.27;100284.97;5067437;28;20055;-59
2021/07/06 10:05:07;;;;;;;3.30;0.82;;;;;;;24.79;49.65;100292.25;5051843;28;20055;-61
2021/07/06 10:07:36;;;;;;;2.95;0.85;;;;;;;24.46;49.88;100291.16;5070257;28;20067;-62
2021/07/06 10:10:08;;;;;;;3.55;0.77;;;;;;;24.37;50.77;100299.63;5052476;28;20052;-61
2021/07/06 10:12:40;;;;;;;3.22;0.90;;;;;;;24.49;50.40;100303.34;5070303;28;20059;-61
2021/07/06 10:15:10;;;;;;;2.03;0.70;;;;;;;24.46;50.92;100309.16;5052408;28;20519;-61
2021/07/06 10:17:45;;;;;;;2.65;0.90;;;;;;;24.43;51.14;100315.75;5036839;28;20048;-61
2021/07/06 10:20:19;;;;;;;1.80;0.80;;;;;;;24.50;51.64;100314.94;5070959;28;20388;-61
2021/07/06 10:22:47;;;;;;;1.98;0.70;;;;;;;24.37;50.84;100311.19;5074013;28;20052;-58
2021/07/06 10:25:15;;;;;;;1.52;0.70;;;;;;;24.29;52.03;100325.63;5055902;28;20040;-58
2021/07/06 10:27:50;;;;;;;3.22;0.90;;;;;;;24.34;51.53;100324.19;5072921;28;20463;-59
2021/07/06 10:30:20;;;;;;;2.80;0.80;;;;;;;24.34;51.83;100314.28;5056599;28;20087;-58
2021/07/06 10:32:53;;;;;;;3.00;1.00;;;;;;;24.35;51.32;100321.31;5071414;28;20056;-60
2021/07/06 10:35:39;;;;;;;;;;;;;;;24.60;50.35;100326.13;5057522;28;20049;-61
2021/07/06 10:38:28;;;;;;;4.13;0.88;;;;;;;24.61;49.86;100325.06;5072742;28;20308;-60
2021/07/06 10:40:56;;;;;;;2.33;0.88;;;;;;;24.48;50.28;100318.63;5074283;28;20075;-61
2021/07/06 10:43:31;;;;;;;5.38;0.95;;;;;;;24.66;50.04;100325.31;5072796;28;20106;-61
2021/07/06 10:46:31;;;;;;;5.88;0.90;;;;;;;24.45;49.82;100332.50;5074049;28;20045;-61
2021/07/06 10:49:01;;;;;;;3.58;0.93;;;;;;;24.39;49.71;100330.63;5067853;28;20110;-58
2021/07/06 10:51:34;;;;;;;3.55;0.82;;;;;;;23.97;50.33;100321.84;5056055;28;20066;-61
2021/07/06 10:54:14;;;;;;;2.95;0.80;;;;;;;24.31;50.47;100328.13;5073694;28;20063;-61
2021/07/06 10:56:43;;;;;;;4.53;1.05;;;;;;;24.25;51.10;100342.38;5055491;28;20472;-58
2021/07/06 10:59:31;;;;;;;3.88;1.00;;;;;;;23.87;50.10;100343.63;5072558;28;20060;-59
2021/07/06 11:02:00;;;;;;;3.70;0.82;;;;;;;23.66;50.08;100351.81;5071615;28;20541;-58
2021/07/06 11:07:07;;;;;;;4.90;0.75;;;;;;;23.85;49.96;100369.03;5073417;28;20871;-58
2021/07/06 11:09:34;;;;;;;5.93;1.10;;;;;;;24.22;49.06;100362.41;5072529;28;20052;-60
2021/07/06 11:12:21;;;;;;;8.13;1.10;;;;;;;23.82;48.60;100361.38;5072649;28;20044;-60
2021/07/06 11:14:56;;;;;;;5.40;1.15;;;;;;;24.39;47.16;100353.97;5072939;28;20117;-61
2021/07/06 11:17:36;;;;;;;3.30;0.90;;;;;;;24.61;46.24;100360.88;5070586;28;20770;-62
2021/07/06 11:20:06;;;;;;;3.58;0.90;;;;;;;24.96;45.00;100367.94;5072542;28;20052;-62
2021/07/06 11:22:43;;;;;;;3.85;0.88;;;;;;;25.05;44.83;100366.69;5072397;28;20059;-62
2021/07/06 11:25:20;;;;;;;5.53;0.88;;;;;;;25.29;42.46;100375.16;5054811;28;20048;-61
2021/07/06 11:28:03;;;;;;;6.20;0.90;;;;;;;25.16;44.73;100386.78;5072157;28;20071;-61
2021/07/06 11:30:33;;;;;;;6.05;1.35;;;;;;;24.78;43.62;100388.19;5072672;28;20431;-63
2021/07/06 11:33:13;;;;;;;2.90;0.80;;;;;;;24.60;42.44;100383.38;5069675;28;20127;-63
2021/07/06 11:35:44;;;;;;;3.55;0.90;;;;;;;25.16;40.90;100385.97;5072693;28;20056;-63